createdAt,value
2023-02-25T00:00:29.950Z,23.87
2023-02-25T00:01:29.936Z,23.83
2023-02-25T00:02:29.971Z,23.83
2023-02-25T00:03:29.930Z,23.86
2023-02-25T00:04:29.917Z,23.81
2023-02-25T00:05:31.583Z,23.83
2023-02-25T00:06:29.855Z,23.84
2023-02-25T00:07:29.851Z,23.82
2023-02-25T00:08:29.826Z,23.86
2023-02-25T00:09:29.845Z,23.83
2023-02-25T00:10:29.815Z,23.81
2023-02-25T00:11:29.801Z,23.83
2023-02-25T00:12:29.790Z,23.80
2023-02-25T00:13:29.790Z,23.79
2023-02-25T00:14:29.786Z,23.81
2023-02-25T00:15:29.757Z,23.83
2023-02-25T00:16:29.767Z,23.87
2023-02-25T00:17:29.735Z,23.80
2023-02-25T00:18:29.756Z,23.83
2023-02-25T00:19:29.730Z,23.81
2023-02-25T00:20:29.706Z,23.83
2023-02-25T00:21:29.729Z,23.81
2023-02-25T00:22:29.671Z,23.86
2023-02-25T00:23:29.708Z,23.86
2023-02-25T00:24:29.642Z,23.86
2023-02-25T00:25:29.640Z,23.83
2023-02-25T00:26:29.614Z,23.83
2023-02-25T00:27:29.599Z,23.83
2023-02-25T00:28:29.601Z,23.87
2023-02-25T00:29:29.587Z,23.83
2023-02-25T00:30:29.555Z,23.84
2023-02-25T00:31:29.640Z,23.81
2023-02-25T00:32:29.700Z,23.84
2023-02-25T00:33:29.510Z,23.81
2023-02-25T00:34:29.509Z,23.84
2023-02-25T00:35:29.482Z,23.86
2023-02-25T00:36:29.464Z,23.79
2023-02-25T00:37:29.450Z,23.84
2023-02-25T00:38:29.433Z,23.81
2023-02-25T00:39:29.445Z,23.81
2023-02-25T00:40:29.421Z,23.83
2023-02-25T00:41:29.389Z,23.87
2023-02-25T00:42:29.388Z,23.86
2023-02-25T00:43:29.356Z,23.80
2023-02-25T00:44:29.342Z,23.86
2023-02-25T00:45:29.332Z,23.84
2023-02-25T00:46:29.356Z,23.86
2023-02-25T00:47:29.296Z,23.86
2023-02-25T00:48:29.290Z,23.80
2023-02-25T00:49:32.338Z,23.80
2023-02-25T00:50:29.269Z,23.84
2023-02-25T00:51:29.253Z,23.79
2023-02-25T00:52:29.238Z,23.84
2023-02-25T00:53:29.212Z,23.84
2023-02-25T00:54:29.218Z,23.81
2023-02-25T00:55:29.202Z,23.84
2023-02-25T00:56:29.174Z,23.80
2023-02-25T00:57:29.150Z,23.84
2023-02-25T00:58:29.154Z,23.84
2023-02-25T00:59:29.131Z,23.84
2023-02-25T01:00:29.115Z,23.83
2023-02-25T01:01:29.126Z,23.88
2023-02-25T01:02:29.084Z,23.83
2023-02-25T01:03:29.045Z,23.83
2023-02-25T01:04:29.021Z,23.84
2023-02-25T01:05:29.014Z,23.84
2023-02-25T01:06:29.010Z,23.83
2023-02-25T01:07:28.968Z,23.80
2023-02-25T01:08:28.948Z,23.83
2023-02-25T01:09:28.946Z,23.85
2023-02-25T01:10:28.931Z,23.84
2023-02-25T01:11:28.903Z,23.81
2023-02-25T01:12:28.886Z,23.83
2023-02-25T01:13:28.878Z,23.88
2023-02-25T01:14:28.837Z,23.86
2023-02-25T01:15:28.836Z,23.83
2023-02-25T01:16:28.886Z,23.84
2023-02-25T01:17:28.806Z,23.83
2023-02-25T01:18:28.807Z,23.86
2023-02-25T01:19:28.773Z,23.85
2023-02-25T01:20:28.762Z,23.83
2023-02-25T01:21:28.740Z,23.83
2023-02-25T01:23:28.698Z,23.83
2023-02-25T01:24:28.680Z,23.81
2023-02-25T01:25:28.684Z,23.85
2023-02-25T01:26:28.668Z,23.80
2023-02-25T01:27:28.648Z,23.80
2023-02-25T01:28:28.638Z,23.83
2023-02-25T01:29:28.652Z,23.83
2023-02-25T01:30:28.616Z,23.80
2023-02-25T01:31:28.735Z,23.83
2023-02-25T01:32:28.685Z,23.88
2023-02-25T01:33:28.560Z,23.86
2023-02-25T01:34:28.548Z,23.84
2023-02-25T01:35:28.530Z,23.84
2023-02-25T01:36:28.532Z,23.84
2023-02-25T01:37:28.519Z,23.88
2023-02-25T01:38:28.486Z,23.84
2023-02-25T01:39:28.479Z,23.84
2023-02-25T01:40:28.456Z,23.85
2023-02-25T01:41:28.433Z,23.86
2023-02-25T01:42:28.419Z,23.81
2023-02-25T01:45:28.436Z,23.81
2023-02-25T01:46:28.473Z,23.80
2023-02-25T01:47:28.420Z,23.84
2023-02-25T01:49:28.437Z,23.80
2023-02-25T01:50:28.412Z,23.85
2023-02-25T01:53:28.406Z,23.84
2023-02-25T01:55:28.384Z,23.84
2023-02-25T02:01:28.425Z,23.82
2023-02-25T02:02:28.406Z,23.80
2023-02-25T03:12:27.533Z,23.78
2023-02-25T03:13:27.507Z,23.81
2023-02-25T03:14:27.500Z,23.78
2023-02-25T03:15:27.491Z,23.74
2023-02-25T03:16:27.482Z,23.81
2023-02-25T03:17:27.469Z,23.79
2023-02-25T03:18:27.480Z,23.78
2023-02-25T03:19:27.470Z,23.80
2023-02-25T03:20:27.483Z,23.81
2023-02-25T03:21:27.479Z,23.77
2023-02-25T03:22:27.472Z,23.79
2023-02-25T03:23:27.484Z,23.81
2023-02-25T03:24:27.481Z,23.80
2023-02-25T03:25:27.471Z,23.82
2023-02-25T03:26:27.476Z,23.81
2023-02-25T03:27:27.471Z,23.81
2023-02-25T03:28:27.480Z,23.72
2023-02-25T03:29:27.477Z,23.78
2023-02-25T03:30:27.490Z,23.81
2023-02-25T03:31:27.512Z,23.75
2023-02-25T03:32:27.611Z,23.78
2023-02-25T03:33:27.452Z,23.79
2023-02-25T03:34:27.472Z,23.81
2023-02-25T03:35:27.448Z,23.78
2023-02-25T03:36:27.446Z,23.77
2023-02-25T03:37:27.453Z,23.72
2023-02-25T03:38:27.451Z,23.74
2023-02-25T03:39:27.445Z,23.74
2023-02-25T03:40:27.450Z,23.77
2023-02-25T03:41:27.455Z,23.77
2023-02-25T03:42:27.473Z,23.77
2023-02-25T03:43:27.463Z,23.79
2023-02-25T03:44:27.462Z,23.77
2023-02-25T03:45:27.462Z,23.78
2023-02-25T03:46:27.735Z,23.75
2023-02-25T03:47:27.468Z,23.78
2023-02-25T03:48:27.482Z,23.71
2023-02-25T03:49:27.472Z,23.78
2023-02-25T03:50:27.498Z,23.75
2023-02-25T03:51:27.474Z,23.77
2023-02-25T03:52:27.495Z,23.77
2023-02-25T03:53:27.473Z,23.74
2023-02-25T03:54:27.508Z,23.75
2023-02-25T03:55:27.439Z,23.78
2023-02-25T03:56:27.434Z,23.77
2023-02-25T03:57:27.413Z,23.77
2023-02-25T03:58:27.401Z,23.79
2023-02-25T03:59:27.382Z,23.72
2023-02-25T04:00:27.368Z,23.79
2023-02-25T04:01:27.364Z,23.75
2023-02-25T04:02:27.351Z,23.74
2023-02-25T04:03:27.329Z,23.77
2023-02-25T04:04:27.367Z,23.78
2023-02-25T04:05:27.296Z,23.77
2023-02-25T04:06:27.271Z,23.74
2023-02-25T04:07:27.267Z,23.74
2023-02-25T04:08:27.257Z,23.75
2023-02-25T04:09:27.226Z,23.77
2023-02-25T04:10:27.207Z,23.77
2023-02-25T04:11:27.217Z,23.74
2023-02-25T04:12:27.193Z,23.78
2023-02-25T04:13:27.200Z,23.79
2023-02-25T04:14:27.165Z,23.78
2023-02-25T04:15:27.154Z,23.75
2023-02-25T04:16:27.133Z,23.77
2023-02-25T04:17:27.119Z,23.79
2023-02-25T04:18:27.108Z,23.79
2023-02-25T04:19:27.106Z,23.78
2023-02-25T04:20:27.085Z,23.80
2023-02-25T04:21:27.082Z,23.78
2023-02-25T04:22:27.076Z,23.75
2023-02-25T04:23:27.064Z,23.80
2023-02-25T04:24:27.062Z,23.77
2023-02-25T04:25:27.047Z,23.78
2023-02-25T04:26:27.051Z,23.78
2023-02-25T04:27:27.041Z,23.84
2023-02-25T04:28:27.033Z,23.78
2023-02-25T04:29:27.023Z,23.79
2023-02-25T04:30:27.015Z,23.77
2023-02-25T04:31:27.117Z,23.77
2023-02-25T04:32:27.078Z,23.75
2023-02-25T04:33:26.970Z,23.78
2023-02-25T04:34:26.959Z,23.81
2023-02-25T04:35:26.942Z,23.77
2023-02-25T04:36:26.929Z,23.79
2023-02-25T04:37:26.924Z,23.79
2023-02-25T04:38:26.896Z,23.78
2023-02-25T04:39:26.884Z,23.81
2023-02-25T04:40:26.880Z,23.79
2023-02-25T04:41:26.855Z,23.79
2023-02-25T04:42:26.847Z,23.78
2023-02-25T04:43:26.839Z,23.84
2023-02-25T04:44:26.837Z,23.77
2023-02-25T04:45:27.312Z,23.75
2023-02-25T04:46:27.056Z,23.80
2023-02-25T04:47:26.803Z,23.78
2023-02-25T04:48:26.788Z,23.75
2023-02-25T04:49:26.784Z,23.78
2023-02-25T04:50:26.751Z,23.78
2023-02-25T04:51:26.745Z,23.77
2023-02-25T04:52:26.728Z,23.78
2023-02-25T04:53:26.716Z,23.78
2023-02-25T04:54:26.719Z,23.79
2023-02-25T04:55:26.698Z,23.77
2023-02-25T04:56:26.682Z,23.73
2023-02-25T04:57:26.672Z,23.77
2023-02-25T04:58:26.651Z,23.77
2023-02-25T04:59:26.673Z,23.71
2023-02-25T05:00:26.624Z,23.75
2023-02-25T05:01:26.697Z,23.77
2023-02-25T05:02:26.614Z,23.79
2023-02-25T05:03:26.624Z,23.75
2023-02-25T05:04:26.658Z,23.75
2023-02-25T05:05:26.629Z,23.82
2023-02-25T05:06:26.633Z,23.76
2023-02-25T05:07:26.632Z,23.75
2023-02-25T05:08:26.639Z,23.75
2023-02-25T05:09:26.651Z,23.77
2023-02-25T05:10:26.654Z,23.74
2023-02-25T05:11:26.688Z,23.75
2023-02-25T05:12:26.653Z,23.75
2023-02-25T05:13:26.666Z,23.75
2023-02-25T05:14:26.663Z,23.75
2023-02-25T05:15:26.678Z,23.75
2023-02-25T05:16:26.966Z,23.77
2023-02-25T05:17:26.664Z,23.71
2023-02-25T05:18:26.693Z,23.78
2023-02-25T05:19:26.680Z,23.73
2023-02-25T05:20:26.686Z,23.74
2023-02-25T05:21:26.702Z,23.77
2023-02-25T05:22:26.685Z,23.78
2023-02-25T05:23:26.676Z,23.74
2023-02-25T05:24:26.681Z,23.80
2023-02-25T05:25:26.678Z,23.77
2023-02-25T05:26:26.835Z,23.75
2023-02-25T05:27:26.698Z,23.78
2023-02-25T05:28:26.689Z,23.77
2023-02-25T05:29:26.720Z,23.75
2023-02-25T05:30:26.695Z,23.78
2023-02-25T05:31:26.898Z,23.75
2023-02-25T05:32:26.787Z,23.75
2023-02-25T05:33:26.695Z,23.78
2023-02-25T05:34:26.696Z,23.72
2023-02-25T05:35:26.694Z,23.75
2023-02-25T05:36:28.296Z,23.78
2023-02-25T05:37:26.696Z,23.75
2023-02-25T05:38:26.699Z,23.75
2023-02-25T05:39:26.702Z,23.77
2023-02-25T05:40:26.699Z,23.74
2023-02-25T05:41:26.669Z,23.78
2023-02-25T05:42:26.665Z,23.75
2023-02-25T05:43:26.669Z,23.77
2023-02-25T05:44:26.653Z,23.77
2023-02-25T05:45:26.658Z,23.75
2023-02-25T05:46:27.197Z,23.75
2023-02-25T05:47:26.637Z,23.78
2023-02-25T05:48:26.645Z,23.78
2023-02-25T05:49:26.643Z,23.75
2023-02-25T05:50:26.688Z,23.77
2023-02-25T05:51:26.648Z,23.77
2023-02-25T05:52:26.641Z,23.73
2023-02-25T05:53:26.627Z,23.75
2023-02-25T05:54:26.631Z,23.71
2023-02-25T05:55:26.623Z,23.75
2023-02-25T05:56:27.286Z,23.75
2023-02-25T05:57:26.611Z,23.73
2023-02-25T05:58:26.601Z,23.75
2023-02-25T05:59:26.604Z,23.75
2023-02-25T06:00:26.640Z,23.78
2023-02-25T06:01:26.604Z,23.70
2023-02-25T06:02:26.693Z,23.75
2023-02-25T06:03:26.624Z,23.71
2023-02-25T06:04:26.580Z,23.77
2023-02-25T06:05:26.569Z,23.77
2023-02-25T06:06:26.577Z,23.78
2023-02-25T06:07:26.563Z,23.79
2023-02-25T06:08:26.560Z,23.77
2023-02-25T06:09:26.540Z,23.74
2023-02-25T06:10:26.535Z,23.72
2023-02-25T06:11:26.528Z,23.84
2023-02-25T06:12:26.527Z,23.78
2023-02-25T06:13:26.544Z,23.74
2023-02-25T06:14:26.513Z,23.80
2023-02-25T06:15:26.503Z,23.75
2023-02-25T06:16:26.925Z,23.79
2023-02-25T06:17:26.490Z,23.78
2023-02-25T06:18:26.478Z,23.75
2023-02-25T06:19:26.500Z,23.79
2023-02-25T06:20:26.468Z,23.77
2023-02-25T06:21:26.458Z,23.82
2023-02-25T06:22:26.450Z,23.78
2023-02-25T06:23:26.435Z,23.78
2023-02-25T06:24:26.427Z,23.78
2023-02-25T06:25:26.418Z,23.77
2023-02-25T06:26:26.554Z,23.75
2023-02-25T06:27:26.402Z,23.77
2023-02-25T06:28:26.401Z,23.80
2023-02-25T06:29:26.397Z,23.75
2023-02-25T06:30:26.413Z,23.75
2023-02-25T06:31:26.411Z,23.77
2023-02-25T06:32:26.498Z,23.78
2023-02-25T06:33:26.343Z,23.78
2023-02-25T06:34:26.349Z,23.74
2023-02-25T06:35:26.340Z,23.77
2023-02-25T06:36:26.851Z,23.75
2023-02-25T06:37:26.319Z,23.75
2023-02-25T06:38:26.317Z,23.75
2023-02-25T06:39:26.310Z,23.74
2023-02-25T06:40:26.307Z,23.77
2023-02-25T06:41:26.302Z,23.74
2023-02-25T06:42:26.294Z,23.79
2023-02-25T06:43:26.290Z,23.75
2023-02-25T06:44:26.288Z,23.72
2023-02-25T06:45:26.280Z,23.78
2023-02-25T06:46:26.976Z,23.78
2023-02-25T06:47:26.259Z,23.78
2023-02-25T06:48:26.265Z,23.79
2023-02-25T06:49:26.253Z,23.78
2023-02-25T06:50:26.257Z,23.77
2023-02-25T06:51:26.270Z,23.77
2023-02-25T06:52:26.240Z,23.77
2023-02-25T06:53:26.242Z,23.75
2023-02-25T06:54:26.216Z,23.75
2023-02-25T06:55:26.202Z,23.78
2023-02-25T06:56:26.715Z,23.75
2023-02-25T06:57:26.195Z,23.75
2023-02-25T06:58:26.172Z,23.75
2023-02-25T06:59:26.167Z,23.78
2023-02-25T07:00:26.168Z,23.75
2023-02-25T07:01:26.154Z,23.75
2023-02-25T07:02:26.145Z,23.78
2023-02-25T07:03:26.119Z,23.75
2023-02-25T07:04:26.134Z,23.77
2023-02-25T07:05:26.094Z,23.74
2023-02-25T07:06:26.093Z,23.79
2023-02-25T07:07:26.077Z,23.79
2023-02-25T07:08:26.056Z,23.80
2023-02-25T07:09:26.048Z,23.75
2023-02-25T07:10:26.030Z,23.77
2023-02-25T07:11:26.024Z,23.75
2023-02-25T07:12:26.022Z,23.78
2023-02-25T07:13:25.991Z,23.75
2023-02-25T07:14:25.985Z,23.71
2023-02-25T07:15:25.983Z,23.78
2023-02-25T07:16:26.297Z,23.74
2023-02-25T07:17:25.955Z,23.77
2023-02-25T07:18:25.941Z,23.80
2023-02-25T07:19:25.930Z,23.75
2023-02-25T07:20:25.928Z,23.75
2023-02-25T07:21:25.934Z,23.74
2023-02-25T07:22:25.902Z,23.77
2023-02-25T07:23:25.895Z,23.75
2023-02-25T07:24:25.879Z,23.77
2023-02-25T07:25:25.911Z,23.78
2023-02-25T07:26:25.971Z,23.75
2023-02-25T07:27:25.932Z,23.74
2023-02-25T07:28:25.844Z,23.71
2023-02-25T07:29:25.856Z,23.74
2023-02-25T07:30:25.823Z,23.74
2023-02-25T07:31:26.457Z,23.71
2023-02-25T07:32:26.023Z,23.70
2023-02-25T07:33:25.912Z,23.75
2023-02-25T07:34:25.872Z,23.80
2023-02-25T07:35:25.780Z,23.77
2023-02-25T07:36:25.781Z,23.79
2023-02-25T07:37:25.791Z,23.74
2023-02-25T07:38:25.761Z,23.71
2023-02-25T07:39:25.762Z,23.70
2023-02-25T07:40:25.757Z,23.77
2023-02-25T07:41:25.870Z,23.74
2023-02-25T07:42:25.749Z,23.70
2023-02-25T07:43:25.728Z,23.74
2023-02-25T07:47:25.759Z,23.73
2023-02-25T10:28:23.844Z,23.27
2023-02-25T10:30:23.823Z,23.29
2023-02-25T10:31:24.310Z,23.25
2023-02-25T10:32:23.902Z,23.29
2023-02-25T10:33:23.738Z,23.33
2023-02-25T10:34:23.720Z,23.30
2023-02-25T10:35:23.714Z,23.30
2023-02-25T10:36:23.689Z,23.27
2023-02-25T10:37:23.682Z,23.33
2023-02-25T10:38:23.660Z,23.30
2023-02-25T10:39:23.624Z,23.27
2023-02-25T10:40:23.594Z,23.33
2023-02-25T10:41:23.984Z,23.32
2023-02-25T10:42:23.562Z,23.30
2023-02-25T10:43:23.547Z,23.36
2023-02-25T10:44:23.542Z,23.36
2023-02-25T10:45:23.519Z,23.27
2023-02-25T10:46:23.528Z,23.32
2023-02-25T10:47:23.479Z,23.33
2023-02-25T10:48:23.480Z,23.36
2023-02-25T10:49:23.464Z,23.33
2023-02-25T10:50:29.777Z,23.30
2023-02-25T10:51:24.808Z,23.33
2023-02-25T10:52:23.406Z,23.26
2023-02-25T10:53:24.284Z,23.31
2023-02-25T10:54:23.398Z,23.28
2023-02-25T10:55:23.360Z,23.22
2023-02-25T10:56:23.358Z,23.31
2023-02-25T10:57:23.344Z,23.29
2023-02-25T10:58:23.332Z,23.23
2023-02-25T10:59:23.373Z,23.25
2023-02-25T11:00:23.298Z,23.26
2023-02-25T11:01:23.555Z,23.19
2023-02-25T11:02:23.543Z,23.28
2023-02-25T11:03:23.254Z,23.26
2023-02-25T11:04:23.232Z,23.22
2023-02-25T11:05:23.208Z,23.20
2023-02-25T11:06:23.425Z,23.28
2023-02-25T11:07:23.191Z,23.28
2023-02-25T11:08:23.166Z,23.19
2023-02-25T11:09:23.139Z,23.22
2023-02-25T11:10:23.119Z,23.22
2023-02-25T11:11:23.641Z,23.23
2023-02-25T11:12:23.087Z,23.18
2023-02-25T11:13:23.081Z,23.19
2023-02-25T11:14:23.055Z,23.12
2023-02-25T11:15:31.568Z,23.19
2023-02-25T11:16:24.104Z,23.21
2023-02-25T11:17:23.000Z,23.14
2023-02-25T11:18:23.047Z,23.17
2023-02-25T11:19:22.971Z,23.12
2023-02-25T11:20:22.944Z,23.08
2023-02-25T11:21:23.253Z,23.12
2023-02-25T11:22:22.908Z,23.16
2023-02-25T11:23:22.882Z,23.08
2023-02-25T11:24:22.862Z,23.12
2023-02-25T11:25:22.858Z,23.11
2023-02-25T11:26:22.836Z,23.06
2023-02-25T11:27:22.833Z,23.14
2023-02-25T11:28:22.804Z,23.11
2023-02-25T11:29:22.796Z,23.08
2023-02-25T11:30:22.765Z,23.08
2023-02-25T11:31:23.283Z,23.07
2023-02-25T11:32:22.906Z,23.04
2023-02-25T11:33:22.724Z,23.07
2023-02-25T11:34:22.714Z,23.07
2023-02-25T11:35:22.687Z,23.04
2023-02-25T11:36:23.018Z,22.99
2023-02-25T11:37:22.648Z,23.06
2023-02-25T11:38:22.632Z,23.01
2023-02-25T11:39:22.609Z,23.01
2023-02-25T11:40:22.598Z,23.01
2023-02-25T11:41:23.198Z,23.04
2023-02-25T11:42:22.561Z,23.01
2023-02-25T11:44:22.512Z,22.98
2023-02-25T11:45:22.506Z,23.00
2023-02-25T11:46:23.126Z,23.01
2023-02-25T11:47:22.510Z,23.01
2023-02-25T11:48:22.446Z,23.01
2023-02-25T11:49:22.427Z,23.06
2023-02-25T11:50:22.427Z,23.04
2023-02-25T11:51:22.392Z,23.04
2023-02-25T11:52:22.388Z,23.07
2023-02-25T11:53:22.384Z,23.06
2023-02-25T11:54:22.339Z,23.07
2023-02-25T11:55:22.330Z,23.01
2023-02-25T11:56:22.531Z,23.05
2023-02-25T11:57:22.303Z,23.09
2023-02-25T11:58:22.260Z,23.07
2023-02-25T11:59:22.253Z,23.09
2023-02-25T12:00:22.228Z,23.07
2023-02-25T12:01:22.230Z,23.07
2023-02-25T12:02:22.202Z,23.04
2023-02-25T12:03:22.175Z,22.99
2023-02-25T12:04:22.161Z,23.06
2023-02-25T12:05:22.144Z,23.10
2023-02-25T12:06:22.391Z,23.03
2023-02-25T12:07:22.100Z,23.04
2023-02-25T12:08:22.079Z,23.04
2023-02-25T12:09:22.071Z,23.06
2023-02-25T12:10:22.048Z,23.04
2023-02-25T12:11:23.979Z,23.06
2023-02-25T12:12:22.008Z,23.07
2023-02-25T12:13:22.036Z,23.06
2023-02-25T12:14:21.970Z,23.06
2023-02-25T12:15:21.955Z,23.10
2023-02-25T12:16:22.167Z,23.10
2023-02-25T12:17:21.939Z,23.04
2023-02-25T12:18:21.914Z,23.07
2023-02-25T12:19:21.926Z,23.07
2023-02-25T12:20:21.871Z,23.12
2023-02-25T12:21:22.056Z,23.10
2023-02-25T12:22:21.841Z,23.12
2023-02-25T12:23:21.826Z,23.07
2023-02-25T12:24:21.818Z,23.10
2023-02-25T12:25:21.787Z,23.13
2023-02-25T12:26:21.788Z,23.16
2023-02-25T12:27:21.758Z,23.11
2023-02-25T12:28:21.751Z,23.14
2023-02-25T12:29:21.733Z,23.16
2023-02-25T12:30:21.726Z,23.16
2023-02-25T12:31:22.029Z,23.16
2023-02-25T12:32:21.746Z,23.17
2023-02-25T12:33:21.664Z,23.14
2023-02-25T12:34:22.887Z,23.14
2023-02-25T12:35:21.598Z,23.16
2023-02-25T12:36:21.576Z,23.17
2023-02-25T12:37:21.592Z,23.20
2023-02-25T12:38:21.538Z,23.14
2023-02-25T12:39:21.531Z,23.17
2023-02-25T12:40:21.502Z,23.16
2023-02-25T12:41:21.823Z,23.19
2023-02-25T12:42:21.469Z,23.17
2023-02-25T12:43:21.452Z,23.20
2023-02-25T12:44:21.420Z,23.21
2023-02-25T12:45:21.422Z,23.16
2023-02-25T12:46:21.394Z,23.17
2023-02-25T12:47:21.372Z,23.20
2023-02-25T12:48:21.351Z,23.21
2023-02-25T12:49:21.343Z,23.25
2023-02-25T12:50:21.310Z,23.20
2023-02-25T12:51:21.637Z,23.20
2023-02-25T12:52:21.279Z,23.17
2023-02-25T12:53:21.290Z,23.19
2023-02-25T12:54:21.251Z,23.19
2023-02-25T12:55:21.249Z,23.20
2023-02-25T12:56:21.220Z,23.19
2023-02-25T12:57:21.216Z,23.19
2023-02-25T12:58:21.190Z,23.23
2023-02-25T12:59:21.186Z,23.18
2023-02-25T13:00:21.193Z,23.17
2023-02-25T13:01:21.333Z,23.20
2023-02-25T13:02:21.125Z,23.19
2023-02-25T13:03:21.118Z,23.21
2023-02-25T13:04:21.095Z,23.20
2023-02-25T13:05:21.066Z,23.17
2023-02-25T13:06:21.068Z,23.18
2023-02-25T13:07:21.033Z,23.21
2023-02-25T13:08:21.012Z,23.21
2023-02-25T13:09:21.004Z,23.18
2023-02-25T13:10:20.971Z,23.20
2023-02-25T13:11:21.012Z,23.16
2023-02-25T13:12:20.928Z,23.19
2023-02-25T13:13:20.925Z,23.20
2023-02-25T13:14:20.882Z,23.21
2023-02-25T13:15:20.878Z,23.17
2023-02-25T13:16:20.881Z,23.17
2023-02-25T13:17:20.826Z,23.17
2023-02-25T13:18:20.808Z,23.18
2023-02-25T13:19:20.789Z,23.20
2023-02-25T13:20:20.761Z,23.23
2023-02-25T13:21:20.749Z,23.21
2023-02-25T13:22:20.747Z,23.24
2023-02-25T13:23:20.721Z,23.23
2023-02-25T13:24:20.692Z,23.20
2023-02-25T13:25:20.671Z,23.18
2023-02-25T13:26:20.655Z,23.20
2023-02-25T13:27:20.629Z,23.21
2023-02-25T13:28:20.613Z,23.23
2023-02-25T13:29:20.588Z,23.21
2023-02-25T13:30:20.597Z,23.20
2023-02-25T13:31:20.581Z,23.20
2023-02-25T13:32:20.628Z,23.18
2023-02-25T13:33:20.502Z,23.20
2023-02-25T13:34:20.467Z,23.23
2023-02-25T13:35:20.443Z,23.21
2023-02-25T13:36:20.425Z,23.24
2023-02-25T13:37:20.405Z,23.24
2023-02-25T13:38:20.364Z,23.20
2023-02-25T13:39:20.358Z,23.17
2023-02-25T13:40:20.321Z,23.23
2023-02-25T13:41:20.302Z,23.26
2023-02-25T13:42:20.276Z,23.23
2023-02-25T13:43:20.274Z,23.23
2023-02-25T13:44:20.240Z,23.24
2023-02-25T13:45:20.220Z,23.23
2023-02-25T13:46:20.190Z,23.26
2023-02-25T13:47:20.200Z,23.20
2023-02-25T13:48:20.143Z,23.23
2023-02-25T13:49:20.143Z,23.23
2023-02-25T13:50:20.112Z,23.29
2023-02-25T13:51:20.078Z,23.24
2023-02-25T13:52:20.062Z,23.29
2023-02-25T13:53:20.043Z,23.27
2023-02-25T13:54:20.031Z,23.24
2023-02-25T13:55:20.001Z,23.24
2023-02-25T13:56:19.999Z,23.21
2023-02-25T13:57:19.951Z,23.27
2023-02-25T13:58:19.949Z,23.22
2023-02-25T13:59:19.967Z,23.25
2023-02-25T14:00:19.906Z,23.27
2023-02-25T14:01:19.946Z,23.27
2023-02-25T14:02:19.895Z,23.28
2023-02-25T14:03:19.838Z,23.34
2023-02-25T14:04:19.833Z,23.30
2023-02-25T14:05:21.978Z,23.30
2023-02-25T14:06:19.769Z,23.33
2023-02-25T14:07:19.748Z,23.32
2023-02-25T14:08:19.727Z,23.28
2023-02-25T14:09:19.726Z,23.34
2023-02-25T14:10:19.678Z,23.30
2023-02-25T14:11:19.651Z,23.32
2023-02-25T14:12:19.648Z,23.35
2023-02-25T14:13:19.604Z,23.34
2023-02-25T14:14:19.588Z,23.39
2023-02-25T14:15:19.549Z,23.37
2023-02-25T14:16:19.535Z,23.34
2023-02-25T14:17:19.504Z,23.34
2023-02-25T14:18:19.475Z,23.35
2023-02-25T14:19:19.459Z,23.35
2023-02-25T14:20:19.440Z,23.37
2023-02-25T14:21:19.411Z,23.38
2023-02-25T14:22:19.381Z,23.31
2023-02-25T14:23:19.353Z,23.37
2023-02-25T14:24:19.339Z,23.34
2023-02-25T14:25:19.312Z,23.35
2023-02-25T14:26:19.286Z,23.37
2023-02-25T14:27:19.258Z,23.36
2023-02-25T14:28:19.243Z,23.36
2023-02-25T14:29:19.220Z,23.35
2023-02-25T14:30:19.196Z,23.37
2023-02-25T14:31:19.303Z,23.32
2023-02-25T14:32:19.233Z,23.36
2023-02-25T14:33:19.602Z,23.35
2023-02-25T14:34:19.120Z,23.36
2023-02-25T14:35:19.102Z,23.43
2023-02-25T14:36:19.065Z,23.37
2023-02-25T14:37:19.035Z,23.41
2023-02-25T14:38:19.018Z,23.40
2023-02-25T14:39:18.990Z,23.39
2023-02-25T14:40:18.967Z,23.37
2023-02-25T14:41:18.944Z,23.42
2023-02-25T14:42:18.911Z,23.40
2023-02-25T14:43:18.884Z,23.40
2023-02-25T14:44:18.869Z,23.40
2023-02-25T14:45:18.852Z,23.39
2023-02-25T14:46:18.905Z,23.39
2023-02-25T14:47:18.795Z,23.40
2023-02-25T14:48:18.779Z,23.44
2023-02-25T14:49:18.760Z,23.39
2023-02-25T14:50:18.737Z,23.42
2023-02-25T14:51:18.700Z,23.40
2023-02-25T14:52:18.681Z,23.44
2023-02-25T14:53:18.670Z,23.43
2023-02-25T14:54:18.644Z,23.42
2023-02-25T14:55:18.634Z,23.46
2023-02-25T14:56:18.617Z,23.43
2023-02-25T14:57:18.583Z,23.43
2023-02-25T14:58:18.573Z,23.40
2023-02-25T14:59:18.561Z,23.42
2023-02-25T15:00:18.530Z,23.40
2023-02-25T15:01:18.509Z,23.44
2023-02-25T15:02:18.507Z,23.48
2023-02-25T15:03:18.464Z,23.46
2023-02-25T15:04:18.454Z,23.40
2023-02-25T15:05:18.457Z,23.40
2023-02-25T15:06:18.401Z,23.43
2023-02-25T15:07:18.381Z,23.39
2023-02-25T15:08:18.359Z,23.40
2023-02-25T15:09:18.376Z,23.44
2023-02-25T15:10:18.332Z,23.43
2023-02-25T15:11:18.321Z,23.45
2023-02-25T15:12:18.291Z,23.46
2023-02-25T15:13:18.276Z,23.43
2023-02-25T15:14:18.266Z,23.48
2023-02-25T15:15:18.225Z,23.41
2023-02-25T15:16:18.278Z,23.39
2023-02-25T15:17:18.199Z,23.42
2023-02-25T15:18:18.181Z,23.41
2023-02-25T15:19:18.142Z,23.42
2023-02-25T15:20:18.145Z,23.42
2023-02-25T15:21:18.101Z,23.43
2023-02-25T15:22:18.087Z,23.46
2023-02-25T15:23:18.072Z,23.46
2023-02-25T15:24:18.052Z,23.44
2023-02-25T15:25:18.046Z,23.47
2023-02-25T15:26:18.031Z,23.44
2023-02-25T15:27:17.994Z,23.46
2023-02-25T15:28:17.982Z,23.48
2023-02-25T15:29:17.980Z,23.45
2023-02-25T15:30:17.946Z,23.47
2023-02-25T15:31:18.007Z,23.43
2023-02-25T15:32:17.941Z,23.51
2023-02-25T15:33:17.877Z,23.44
2023-02-25T15:34:17.856Z,23.49
2023-02-25T15:35:17.826Z,23.47
2023-02-25T15:36:17.807Z,23.46
2023-02-25T15:37:17.788Z,23.45
2023-02-25T15:38:17.787Z,23.45
2023-02-25T15:39:17.743Z,23.50
2023-02-25T15:40:17.728Z,23.47
2023-02-25T15:41:17.698Z,23.47
2023-02-25T15:42:17.681Z,23.48
2023-02-25T15:43:17.666Z,23.51
2023-02-25T15:44:17.633Z,23.49
2023-02-25T15:45:26.360Z,23.52
2023-02-25T15:46:18.650Z,23.49
2023-02-25T15:47:17.572Z,23.48
2023-02-25T15:48:17.563Z,23.47
2023-02-25T15:49:17.533Z,23.52
2023-02-25T15:50:17.521Z,23.52
2023-02-25T15:51:17.521Z,23.52
2023-02-25T15:52:17.496Z,23.53
2023-02-25T15:53:17.474Z,23.51
2023-02-25T15:54:17.478Z,23.49
2023-02-25T15:55:17.441Z,23.47
2023-02-25T15:56:17.416Z,23.49
2023-02-25T15:57:17.406Z,23.52
2023-02-25T15:58:17.382Z,23.52
2023-02-25T15:59:17.381Z,23.51
2023-02-25T16:00:17.397Z,23.51
2023-02-25T16:01:17.539Z,23.49
2023-02-25T16:02:17.396Z,23.51
2023-02-25T16:03:17.384Z,23.48
2023-02-25T16:04:17.395Z,23.49
2023-02-25T16:05:17.377Z,23.55
2023-02-25T16:06:17.410Z,23.51
2023-02-25T16:07:17.400Z,23.52
2023-02-25T16:08:17.406Z,23.48
2023-02-25T16:09:17.373Z,23.49
2023-02-25T16:10:17.375Z,23.51
2023-02-25T16:11:17.349Z,23.53
2023-02-25T16:12:17.358Z,23.53
2023-02-25T16:13:17.354Z,23.48
2023-02-25T16:14:17.339Z,23.52
2023-02-25T16:15:17.329Z,23.46
2023-02-25T16:16:17.354Z,23.55
2023-02-25T16:17:17.297Z,23.56
2023-02-25T16:18:17.277Z,23.52
2023-02-25T16:19:17.270Z,23.55
2023-02-25T16:20:17.253Z,23.56
2023-02-25T16:21:17.239Z,23.52
2023-02-25T16:22:17.216Z,23.52
2023-02-25T16:23:17.199Z,23.48
2023-02-25T16:24:17.199Z,23.53
2023-02-25T16:25:17.160Z,23.53
2023-02-25T16:26:17.146Z,23.52
2023-02-25T16:27:17.116Z,23.56
2023-02-25T16:28:17.105Z,23.52
2023-02-25T16:29:17.086Z,23.57
2023-02-25T16:30:17.107Z,23.59
2023-02-25T16:31:17.147Z,23.54
2023-02-25T16:32:17.170Z,23.53
2023-02-25T16:33:17.015Z,23.52
2023-02-25T16:34:16.984Z,23.52
2023-02-25T16:35:16.972Z,23.57
2023-02-25T16:36:16.965Z,23.57
2023-02-25T16:37:16.960Z,23.56
2023-02-25T16:38:16.919Z,23.57
2023-02-25T16:39:16.901Z,23.52
2023-02-25T16:40:16.885Z,23.57
2023-02-25T16:41:16.863Z,23.57
2023-02-25T16:42:16.862Z,23.57
2023-02-25T16:43:16.831Z,23.53
2023-02-25T16:44:16.818Z,23.58
2023-02-25T16:45:16.819Z,23.60
2023-02-25T16:46:16.800Z,23.57
2023-02-25T16:47:16.775Z,23.60
2023-02-25T16:48:16.756Z,23.58
2023-02-25T16:49:16.748Z,23.57
2023-02-25T16:50:16.739Z,23.60
2023-02-25T16:51:16.728Z,23.61
2023-02-25T16:52:16.705Z,23.61
2023-02-25T16:53:16.691Z,23.63
2023-02-25T16:54:16.687Z,23.55
2023-02-25T16:55:16.667Z,23.64
2023-02-25T16:56:16.669Z,23.57
2023-02-25T16:57:16.634Z,23.57
2023-02-25T16:58:16.627Z,23.61